sensor_id;sensor_type;location;lat;lon;timestamp;temperature;humidity
17891;DHT22;9071;48.220;14.480;2022-08-26T00:00:00;17.90;99.90
17891;DHT22;9071;48.220;14.480;2022-08-26T00:05:03;17.80;99.90
17891;DHT22;9071;48.220;14.480;2022-08-26T00:10:06;17.80;99.90
17891;DHT22;9071;48.220;14.480;2022-08-26T00:15:12;17.80;99.90
17891;DHT22;9071;48.220;14.480;2022-08-26T00:20:16;17.80;99.90
17891;DHT22;9071;48.220;14.480;2022-08-26T00:25:19;17.80;99.90
17891;DHT22;9071;48.220;14.480;2022-08-26T00:30:25;17.80;99.90
17891;DHT22;9071;48.220;14.480;2022-08-26T00:35:28;17.70;99.90
17891;DHT22;9071;48.220;14.480;2022-08-26T00:40:34;17.70;99.90
17891;DHT22;9071;48.220;14.480;2022-08-26T00:45:41;17.60;99.90
17891;DHT22;9071;48.220;14.480;2022-08-26T00:50:49;17.50;99.90
17891;DHT22;9071;48.220;14.480;2022-08-26T00:55:54;17.50;99.90
17891;DHT22;9071;48.220;14.480;2022-08-26T01:00:59;17.50;99.90
17891;DHT22;9071;48.220;14.480;2022-08-26T01:06:02;17.60;99.90
17891;DHT22;9071;48.220;14.480;2022-08-26T01:11:05;17.60;99.90
17891;DHT22;9071;48.220;14.480;2022-08-26T01:16:12;17.70;99.90
17891;DHT22;9071;48.220;14.480;2022-08-26T01:21:20;17.60;99.90
17891;DHT22;9071;48.220;14.480;2022-08-26T01:26:30;17.60;99.90
17891;DHT22;9071;48.220;14.480;2022-08-26T01:31:37;17.50;99.90
17891;DHT22;9071;48.220;14.480;2022-08-26T01:36:41;17.50;99.90
17891;DHT22;9071;48.220;14.480;2022-08-26T01:41:45;17.30;99.90
17891;DHT22;9071;48.220;14.480;2022-08-26T01:46:49;17.20;99.90
17891;DHT22;9071;48.220;14.480;2022-08-26T01:51:54;17.10;99.90
17891;DHT22;9071;48.220;14.480;2022-08-26T01:57:01;17.10;99.90
17891;DHT22;9071;48.220;14.480;2022-08-26T02:02:04;17.20;99.90
17891;DHT22;9071;48.220;14.480;2022-08-26T02:07:08;17.20;99.90
17891;DHT22;9071;48.220;14.480;2022-08-26T02:12:14;17.10;99.90
17891;DHT22;9071;48.220;14.480;2022-08-26T02:17:20;17.10;99.90
17891;DHT22;9071;48.220;14.480;2022-08-26T02:22:24;17.00;99.90
17891;DHT22;9071;48.220;14.480;2022-08-26T02:27:30;17.00;99.90
17891;DHT22;9071;48.220;14.480;2022-08-26T02:32:32;16.90;99.90
17891;DHT22;9071;48.220;14.480;2022-08-26T02:37:34;16.90;99.90
17891;DHT22;9071;48.220;14.480;2022-08-26T02:42:38;16.80;99.90
17891;DHT22;9071;48.220;14.480;2022-08-26T02:47:40;16.80;99.90
17891;DHT22;9071;48.220;14.480;2022-08-26T02:52:42;16.80;99.90
17891;DHT22;9071;48.220;14.480;2022-08-26T02:57:45;16.80;99.90
17891;DHT22;9071;48.220;14.480;2022-08-26T03:02:48;16.90;99.90
17891;DHT22;9071;48.220;14.480;2022-08-26T03:07:50;16.90;99.90
17891;DHT22;9071;48.220;14.480;2022-08-26T03:12:54;16.90;99.90
17891;DHT22;9071;48.220;14.480;2022-08-26T03:17:56;16.70;99.90
17891;DHT22;9071;48.220;14.480;2022-08-26T03:22:58;16.70;99.90
17891;DHT22;9071;48.220;14.480;2022-08-26T03:28:02;16.60;99.90
17891;DHT22;9071;48.220;14.480;2022-08-26T03:33:05;16.60;99.90
17891;DHT22;9071;48.220;14.480;2022-08-26T03:38:08;16.60;99.90
17891;DHT22;9071;48.220;14.480;2022-08-26T03:43:12;16.60;99.90
17891;DHT22;9071;48.220;14.480;2022-08-26T03:48:14;16.60;99.90
17891;DHT22;9071;48.220;14.480;2022-08-26T03:53:16;16.50;99.90
17891;DHT22;9071;48.220;14.480;2022-08-26T03:58:20;16.40;99.90
17891;DHT22;9071;48.220;14.480;2022-08-26T04:03:23;16.50;99.90
17891;DHT22;9071;48.220;14.480;2022-08-26T04:08:40;16.60;99.90
17891;DHT22;9071;48.220;14.480;2022-08-26T04:13:44;16.60;99.90
17891;DHT22;9071;48.220;14.480;2022-08-26T04:18:46;16.50;99.90
17891;DHT22;9071;48.220;14.480;2022-08-26T04:23:48;16.50;99.90
17891;DHT22;9071;48.220;14.480;2022-08-26T04:28:53;16.70;99.90
17891;DHT22;9071;48.220;14.480;2022-08-26T04:33:55;16.80;99.90
17891;DHT22;9071;48.220;14.480;2022-08-26T04:38:59;17.00;99.90
17891;DHT22;9071;48.220;14.480;2022-08-26T04:44:04;17.10;99.90
17891;DHT22;9071;48.220;14.480;2022-08-26T04:49:06;17.30;99.90
17891;DHT22;9071;48.220;14.480;2022-08-26T04:54:09;17.40;99.90
17891;DHT22;9071;48.220;14.480;2022-08-26T04:59:14;17.60;99.90
17891;DHT22;9071;48.220;14.480;2022-08-26T05:04:18;17.60;99.90
17891;DHT22;9071;48.220;14.480;2022-08-26T05:09:21;17.80;99.90
17891;DHT22;9071;48.220;14.480;2022-08-26T05:14:24;18.10;99.90
17891;DHT22;9071;48.220;14.480;2022-08-26T05:19:27;18.40;99.90
17891;DHT22;9071;48.220;14.480;2022-08-26T05:24:29;18.80;99.90
17891;DHT22;9071;48.220;14.480;2022-08-26T05:29:32;19.20;99.90
17891;DHT22;9071;48.220;14.480;2022-08-26T05:34:34;19.40;99.90
17891;DHT22;9071;48.220;14.480;2022-08-26T05:39:37;19.80;99.90
17891;DHT22;9071;48.220;14.480;2022-08-26T05:44:40;21.10;99.90
17891;DHT22;9071;48.220;14.480;2022-08-26T05:49:42;22.00;99.90
17891;DHT22;9071;48.220;14.480;2022-08-26T05:54:44;22.10;99.90
17891;DHT22;9071;48.220;14.480;2022-08-26T05:59:48;21.80;99.90
17891;DHT22;9071;48.220;14.480;2022-08-26T06:04:50;21.50;99.90
17891;DHT22;9071;48.220;14.480;2022-08-26T06:09:52;21.40;99.90
17891;DHT22;9071;48.220;14.480;2022-08-26T06:14:56;21.40;99.90
17891;DHT22;9071;48.220;14.480;2022-08-26T06:19:58;21.60;99.90
17891;DHT22;9071;48.220;14.480;2022-08-26T06:25:00;21.70;99.90
17891;DHT22;9071;48.220;14.480;2022-08-26T06:30:21;21.90;99.90
17891;DHT22;9071;48.220;14.480;2022-08-26T06:35:23;22.50;99.90
17891;DHT22;9071;48.220;14.480;2022-08-26T06:40:25;22.90;99.90
17891;DHT22;9071;48.220;14.480;2022-08-26T06:45:29;23.10;99.90
17891;DHT22;9071;48.220;14.480;2022-08-26T06:50:31;23.30;99.90
17891;DHT22;9071;48.220;14.480;2022-08-26T06:55:38;24.20;99.90
17891;DHT22;9071;48.220;14.480;2022-08-26T07:00:42;25.00;99.90
17891;DHT22;9071;48.220;14.480;2022-08-26T07:05:44;25.20;99.90
17891;DHT22;9071;48.220;14.480;2022-08-26T07:10:46;25.70;99.90
17891;DHT22;9071;48.220;14.480;2022-08-26T07:15:50;26.20;99.90
17891;DHT22;9071;48.220;14.480;2022-08-26T07:20:52;27.10;99.90
17891;DHT22;9071;48.220;14.480;2022-08-26T07:25:54;28.60;99.90
17891;DHT22;9071;48.220;14.480;2022-08-26T07:30:58;29.40;99.90
17891;DHT22;9071;48.220;14.480;2022-08-26T07:36:05;30.60;99.90
17891;DHT22;9071;48.220;14.480;2022-08-26T07:41:07;31.10;99.90
17891;DHT22;9071;48.220;14.480;2022-08-26T07:46:11;30.90;99.90
17891;DHT22;9071;48.220;14.480;2022-08-26T07:51:19;30.30;99.90
17891;DHT22;9071;48.220;14.480;2022-08-26T07:56:22;30.30;99.90
17891;DHT22;9071;48.220;14.480;2022-08-26T08:01:26;30.10;99.90
17891;DHT22;9071;48.220;14.480;2022-08-26T08:06:29;29.60;99.90
17891;DHT22;9071;48.220;14.480;2022-08-26T08:11:31;29.90;99.90
17891;DHT22;9071;48.220;14.480;2022-08-26T08:16:35;29.60;99.90
17891;DHT22;9071;48.220;14.480;2022-08-26T08:21:37;29.60;99.90
17891;DHT22;9071;48.220;14.480;2022-08-26T08:26:40;29.20;99.90
17891;DHT22;9071;48.220;14.480;2022-08-26T08:31:43;28.40;99.90
17891;DHT22;9071;48.220;14.480;2022-08-26T08:36:48;27.90;99.90
17891;DHT22;9071;48.220;14.480;2022-08-26T08:42:02;28.20;99.90
17891;DHT22;9071;48.220;14.480;2022-08-26T08:47:17;28.00;99.90
17891;DHT22;9071;48.220;14.480;2022-08-26T08:52:27;27.80;99.90
17891;DHT22;9071;48.220;14.480;2022-08-26T08:57:36;27.20;99.90
17891;DHT22;9071;48.220;14.480;2022-08-26T09:02:49;26.90;99.90
17891;DHT22;9071;48.220;14.480;2022-08-26T09:07:56;27.10;99.90
17891;DHT22;9071;48.220;14.480;2022-08-26T09:13:01;27.20;99.90
17891;DHT22;9071;48.220;14.480;2022-08-26T09:18:10;27.60;99.90
17891;DHT22;9071;48.220;14.480;2022-08-26T09:23:15;27.60;99.90
17891;DHT22;9071;48.220;14.480;2022-08-26T09:28:19;27.70;99.90
17891;DHT22;9071;48.220;14.480;2022-08-26T09:33:27;27.90;99.90
17891;DHT22;9071;48.220;14.480;2022-08-26T09:38:32;27.70;99.90
17891;DHT22;9071;48.220;14.480;2022-08-26T09:43:35;27.40;99.90
17891;DHT22;9071;48.220;14.480;2022-08-26T09:48:39;27.30;99.90
17891;DHT22;9071;48.220;14.480;2022-08-26T09:53:50;27.40;99.90
17891;DHT22;9071;48.220;14.480;2022-08-26T09:58:53;27.40;99.90
17891;DHT22;9071;48.220;14.480;2022-08-26T10:04:03;27.70;99.90
17891;DHT22;9071;48.220;14.480;2022-08-26T10:09:06;28.10;99.90
17891;DHT22;9071;48.220;14.480;2022-08-26T10:14:16;28.40;99.90
17891;DHT22;9071;48.220;14.480;2022-08-26T10:19:24;28.80;99.90
17891;DHT22;9071;48.220;14.480;2022-08-26T10:24:30;28.90;99.90
17891;DHT22;9071;48.220;14.480;2022-08-26T10:29:37;29.00;99.90
17891;DHT22;9071;48.220;14.480;2022-08-26T10:34:42;28.80;99.90
17891;DHT22;9071;48.220;14.480;2022-08-26T10:39:50;28.40;99.90
17891;DHT22;9071;48.220;14.480;2022-08-26T10:44:56;28.10;99.90
17891;DHT22;9071;48.220;14.480;2022-08-26T10:50:01;27.80;99.90
17891;DHT22;9071;48.220;14.480;2022-08-26T10:55:11;27.70;99.90
17891;DHT22;9071;48.220;14.480;2022-08-26T11:00:20;27.80;99.90
17891;DHT22;9071;48.220;14.480;2022-08-26T11:05:41;27.90;99.90
17891;DHT22;9071;48.220;14.480;2022-08-26T11:11:01;28.30;99.90
17891;DHT22;9071;48.220;14.480;2022-08-26T11:16:03;28.90;99.90
17891;DHT22;9071;48.220;14.480;2022-08-26T11:26:47;29.20;99.90
17891;DHT22;9071;48.220;14.480;2022-08-26T11:31:54;29.10;99.90
17891;DHT22;9071;48.220;14.480;2022-08-26T11:36:58;29.20;99.90
17891;DHT22;9071;48.220;14.480;2022-08-26T11:42:15;29.20;99.90
17891;DHT22;9071;48.220;14.480;2022-08-26T11:47:26;29.00;99.90
17891;DHT22;9071;48.220;14.480;2022-08-26T11:52:29;28.90;99.90
17891;DHT22;9071;48.220;14.480;2022-08-26T11:57:34;28.90;99.90
17891;DHT22;9071;48.220;14.480;2022-08-26T12:02:41;29.00;99.90
17891;DHT22;9071;48.220;14.480;2022-08-26T12:07:48;29.20;99.90
17891;DHT22;9071;48.220;14.480;2022-08-26T12:12:56;29.10;99.90
17891;DHT22;9071;48.220;14.480;2022-08-26T12:18:14;29.10;99.90
17891;DHT22;9071;48.220;14.480;2022-08-26T12:23:21;29.50;99.90
17891;DHT22;9071;48.220;14.480;2022-08-26T12:28:25;29.60;99.90
17891;DHT22;9071;48.220;14.480;2022-08-26T12:33:27;29.80;99.90
17891;DHT22;9071;48.220;14.480;2022-08-26T12:38:31;29.80;99.90
17891;DHT22;9071;48.220;14.480;2022-08-26T12:43:40;29.70;99.90
17891;DHT22;9071;48.220;14.480;2022-08-26T12:48:47;29.70;99.90
17891;DHT22;9071;48.220;14.480;2022-08-26T12:53:49;29.60;99.90
17891;DHT22;9071;48.220;14.480;2022-08-26T12:59:19;29.80;99.90
17891;DHT22;9071;48.220;14.480;2022-08-26T13:04:36;29.60;99.90
17891;DHT22;9071;48.220;14.480;2022-08-26T13:09:39;29.90;99.90
17891;DHT22;9071;48.220;14.480;2022-08-26T13:14:42;29.90;99.90
17891;DHT22;9071;48.220;14.480;2022-08-26T13:19:44;29.80;99.90
17891;DHT22;9071;48.220;14.480;2022-08-26T13:24:46;29.90;99.90
17891;DHT22;9071;48.220;14.480;2022-08-26T13:29:50;30.00;99.90
17891;DHT22;9071;48.220;14.480;2022-08-26T13:34:53;29.90;99.90
17891;DHT22;9071;48.220;14.480;2022-08-26T13:39:57;30.00;99.90
17891;DHT22;9071;48.220;14.480;2022-08-26T13:45:00;30.20;99.90
17891;DHT22;9071;48.220;14.480;2022-08-26T13:50:03;30.10;99.90
17891;DHT22;9071;48.220;14.480;2022-08-26T13:55:07;30.20;99.90
17891;DHT22;9071;48.220;14.480;2022-08-26T14:00:12;30.10;99.90
17891;DHT22;9071;48.220;14.480;2022-08-26T14:05:14;29.70;99.90
17891;DHT22;9071;48.220;14.480;2022-08-26T14:10:16;29.50;99.90
17891;DHT22;9071;48.220;14.480;2022-08-26T14:15:20;29.50;99.90
17891;DHT22;9071;48.220;14.480;2022-08-26T14:20:26;29.60;99.90
17891;DHT22;9071;48.220;14.480;2022-08-26T14:25:29;29.50;99.90
17891;DHT22;9071;48.220;14.480;2022-08-26T14:30:36;29.60;99.90
17891;DHT22;9071;48.220;14.480;2022-08-26T14:35:40;29.80;99.90
17891;DHT22;9071;48.220;14.480;2022-08-26T14:40:42;29.80;99.90
17891;DHT22;9071;48.220;14.480;2022-08-26T14:45:46;29.70;99.90
17891;DHT22;9071;48.220;14.480;2022-08-26T14:50:48;29.80;99.90
17891;DHT22;9071;48.220;14.480;2022-08-26T14:55:51;29.70;99.90
17891;DHT22;9071;48.220;14.480;2022-08-26T15:00:54;29.70;99.90
17891;DHT22;9071;48.220;14.480;2022-08-26T15:05:56;29.50;99.90
17891;DHT22;9071;48.220;14.480;2022-08-26T15:10:59;29.40;99.90
17891;DHT22;9071;48.220;14.480;2022-08-26T15:16:03;29.40;99.90
17891;DHT22;9071;48.220;14.480;2022-08-26T15:21:06;29.20;99.90
17891;DHT22;9071;48.220;14.480;2022-08-26T15:26:09;29.10;99.90
17891;DHT22;9071;48.220;14.480;2022-08-26T15:31:14;29.00;99.90
17891;DHT22;9071;48.220;14.480;2022-08-26T15:36:17;29.00;99.90
17891;DHT22;9071;48.220;14.480;2022-08-26T15:41:19;29.10;99.90
17891;DHT22;9071;48.220;14.480;2022-08-26T15:46:22;29.00;99.90
17891;DHT22;9071;48.220;14.480;2022-08-26T15:51:26;29.00;99.90
17891;DHT22;9071;48.220;14.480;2022-08-26T15:56:30;28.90;99.90
17891;DHT22;9071;48.220;14.480;2022-08-26T16:01:35;28.60;99.90
17891;DHT22;9071;48.220;14.480;2022-08-26T16:06:39;28.60;99.90
17891;DHT22;9071;48.220;14.480;2022-08-26T16:11:42;28.50;99.90
17891;DHT22;9071;48.220;14.480;2022-08-26T16:16:45;28.40;99.90
17891;DHT22;9071;48.220;14.480;2022-08-26T16:21:47;28.20;99.90
17891;DHT22;9071;48.220;14.480;2022-08-26T16:26:51;28.20;99.90
17891;DHT22;9071;48.220;14.480;2022-08-26T16:31:55;28.20;99.90
17891;DHT22;9071;48.220;14.480;2022-08-26T16:36:57;28.10;99.90
17891;DHT22;9071;48.220;14.480;2022-08-26T16:42:00;28.10;99.90
17891;DHT22;9071;48.220;14.480;2022-08-26T16:47:03;28.10;99.90
17891;DHT22;9071;48.220;14.480;2022-08-26T16:52:06;28.10;99.90
17891;DHT22;9071;48.220;14.480;2022-08-26T16:57:11;27.90;99.90
17891;DHT22;9071;48.220;14.480;2022-08-26T17:02:15;27.80;99.90
17891;DHT22;9071;48.220;14.480;2022-08-26T17:07:17;27.40;99.90
17891;DHT22;9071;48.220;14.480;2022-08-26T17:12:19;27.30;99.90
17891;DHT22;9071;48.220;14.480;2022-08-26T17:17:22;27.00;99.90
17891;DHT22;9071;48.220;14.480;2022-08-26T17:22:24;26.70;99.90
17891;DHT22;9071;48.220;14.480;2022-08-26T17:27:27;26.40;99.90
17891;DHT22;9071;48.220;14.480;2022-08-26T17:32:31;26.20;99.90
17891;DHT22;9071;48.220;14.480;2022-08-26T17:37:33;26.10;99.90
17891;DHT22;9071;48.220;14.480;2022-08-26T17:42:36;26.00;99.90
17891;DHT22;9071;48.220;14.480;2022-08-26T17:47:40;25.90;99.90
17891;DHT22;9071;48.220;14.480;2022-08-26T17:52:43;25.70;99.90
17891;DHT22;9071;48.220;14.480;2022-08-26T17:57:46;25.50;99.90
17891;DHT22;9071;48.220;14.480;2022-08-26T18:02:49;25.40;99.90
17891;DHT22;9071;48.220;14.480;2022-08-26T18:07:52;25.20;99.90
17891;DHT22;9071;48.220;14.480;2022-08-26T18:12:54;25.10;99.90
17891;DHT22;9071;48.220;14.480;2022-08-26T18:17:57;25.00;99.90
17891;DHT22;9071;48.220;14.480;2022-08-26T18:22:59;25.00;99.90
17891;DHT22;9071;48.220;14.480;2022-08-26T18:28:01;24.90;99.90
17891;DHT22;9071;48.220;14.480;2022-08-26T18:33:05;24.80;99.90
17891;DHT22;9071;48.220;14.480;2022-08-26T18:38:07;24.80;99.90
17891;DHT22;9071;48.220;14.480;2022-08-26T18:43:10;24.60;99.90
17891;DHT22;9071;48.220;14.480;2022-08-26T18:48:13;24.10;99.90
17891;DHT22;9071;48.220;14.480;2022-08-26T18:53:16;23.70;99.90
17891;DHT22;9071;48.220;14.480;2022-08-26T18:58:18;23.50;99.90
17891;DHT22;9071;48.220;14.480;2022-08-26T19:03:21;23.30;99.90
17891;DHT22;9071;48.220;14.480;2022-08-26T19:08:23;23.10;99.90
17891;DHT22;9071;48.220;14.480;2022-08-26T19:13:41;22.90;99.90
17891;DHT22;9071;48.220;14.480;2022-08-26T19:18:45;22.50;99.90
17891;DHT22;9071;48.220;14.480;2022-08-26T19:23:47;21.90;99.90
17891;DHT22;9071;48.220;14.480;2022-08-26T19:28:49;21.30;99.90
17891;DHT22;9071;48.220;14.480;2022-08-26T19:33:53;21.20;99.90
17891;DHT22;9071;48.220;14.480;2022-08-26T19:38:57;20.90;99.90
17891;DHT22;9071;48.220;14.480;2022-08-26T19:44:00;20.60;99.90
17891;DHT22;9071;48.220;14.480;2022-08-26T19:49:03;20.60;99.90
17891;DHT22;9071;48.220;14.480;2022-08-26T19:54:05;20.50;99.90
17891;DHT22;9071;48.220;14.480;2022-08-26T19:59:07;20.30;99.90
17891;DHT22;9071;48.220;14.480;2022-08-26T20:04:11;20.30;99.90
17891;DHT22;9071;48.220;14.480;2022-08-26T20:09:13;20.20;99.90
17891;DHT22;9071;48.220;14.480;2022-08-26T20:14:15;20.10;99.90
17891;DHT22;9071;48.220;14.480;2022-08-26T20:19:19;20.10;99.90
17891;DHT22;9071;48.220;14.480;2022-08-26T20:24:39;20.00;99.90
17891;DHT22;9071;48.220;14.480;2022-08-26T20:29:41;19.90;99.90
17891;DHT22;9071;48.220;14.480;2022-08-26T20:34:45;19.90;99.90
17891;DHT22;9071;48.220;14.480;2022-08-26T20:39:47;19.90;99.90
17891;DHT22;9071;48.220;14.480;2022-08-26T20:44:49;19.80;99.90
17891;DHT22;9071;48.220;14.480;2022-08-26T20:49:53;19.80;99.90
17891;DHT22;9071;48.220;14.480;2022-08-26T20:54:55;19.70;99.90
17891;DHT22;9071;48.220;14.480;2022-08-26T20:59:57;19.70;99.90
17891;DHT22;9071;48.220;14.480;2022-08-26T21:05:02;19.70;99.90
17891;DHT22;9071;48.220;14.480;2022-08-26T21:10:05;19.60;99.90
17891;DHT22;9071;48.220;14.480;2022-08-26T21:15:08;19.60;99.90
17891;DHT22;9071;48.220;14.480;2022-08-26T21:20:12;19.50;99.90
17891;DHT22;9071;48.220;14.480;2022-08-26T21:25:14;19.50;99.90
17891;DHT22;9071;48.220;14.480;2022-08-26T21:30:16;19.40;99.90
17891;DHT22;9071;48.220;14.480;2022-08-26T21:35:20;19.30;99.90
17891;DHT22;9071;48.220;14.480;2022-08-26T21:40:22;19.30;99.90
17891;DHT22;9071;48.220;14.480;2022-08-26T21:45:24;19.30;99.90
17891;DHT22;9071;48.220;14.480;2022-08-26T21:50:28;19.30;99.90
17891;DHT22;9071;48.220;14.480;2022-08-26T21:55:34;19.30;99.90
17891;DHT22;9071;48.220;14.480;2022-08-26T22:00:36;19.10;99.90
17891;DHT22;9071;48.220;14.480;2022-08-26T22:05:42;19.10;99.90
17891;DHT22;9071;48.220;14.480;2022-08-26T22:10:45;19.00;99.90
17891;DHT22;9071;48.220;14.480;2022-08-26T22:15:51;19.00;99.90
17891;DHT22;9071;48.220;14.480;2022-08-26T22:20:59;18.90;99.90
17891;DHT22;9071;48.220;14.480;2022-08-26T22:26:03;18.90;99.90
17891;DHT22;9071;48.220;14.480;2022-08-26T22:31:06;19.00;99.90
17891;DHT22;9071;48.220;14.480;2022-08-26T22:36:17;19.00;99.90
17891;DHT22;9071;48.220;14.480;2022-08-26T22:41:20;18.90;99.90
17891;DHT22;9071;48.220;14.480;2022-08-26T22:46:24;18.80;99.90
17891;DHT22;9071;48.220;14.480;2022-08-26T22:51:28;18.70;99.90
17891;DHT22;9071;48.220;14.480;2022-08-26T22:56:31;18.60;99.90
17891;DHT22;9071;48.220;14.480;2022-08-26T23:01:34;18.40;99.90
17891;DHT22;9071;48.220;14.480;2022-08-26T23:06:40;18.50;99.90
17891;DHT22;9071;48.220;14.480;2022-08-26T23:11:43;18.40;99.90
17891;DHT22;9071;48.220;14.480;2022-08-26T23:16:46;18.30;99.90
17891;DHT22;9071;48.220;14.480;2022-08-26T23:21:49;18.20;99.90
17891;DHT22;9071;48.220;14.480;2022-08-26T23:26:51;18.20;99.90
17891;DHT22;9071;48.220;14.480;2022-08-26T23:31:53;18.20;99.90
17891;DHT22;9071;48.220;14.480;2022-08-26T23:36:57;18.20;99.90
17891;DHT22;9071;48.220;14.480;2022-08-26T23:41:59;18.10;99.90
17891;DHT22;9071;48.220;14.480;2022-08-26T23:47:03;18.00;99.90
17891;DHT22;9071;48.220;14.480;2022-08-26T23:52:07;17.80;99.90
17891;DHT22;9071;48.220;14.480;2022-08-26T23:57:26;17.70;99.90
